createdAt,value
2018-10-09T00:06:57.104Z,32.13
2018-10-09T00:12:56.573Z,28.93
2018-10-09T00:18:56.221Z,25.97
2018-10-09T00:27:56.560Z,27.43
2018-10-09T00:39:56.659Z,32.30
2018-10-09T00:45:56.049Z,33.30
2018-10-09T01:00:56.598Z,25.30
2018-10-09T01:12:56.272Z,27.47
2018-10-09T01:21:56.137Z,24.93
2018-10-09T01:30:56.629Z,24.37
2018-10-09T01:51:56.529Z,21.33
2018-10-09T02:03:56.335Z,23.87
2018-10-09T02:18:56.774Z,23.87
2018-10-09T02:24:56.413Z,23.47
2018-10-09T02:30:56.032Z,25.57
2018-10-09T02:42:56.440Z,24.33
2018-10-09T03:00:57.201Z,19.60
2018-10-09T03:06:27.665Z,24.40
2018-10-09T03:08:56.849Z,22.70
2018-10-09T03:11:26.018Z,22.57
2018-10-09T03:13:55.216Z,24.70
2018-10-09T03:16:24.409Z,27.40
2018-10-09T03:18:53.653Z,25.30
2018-10-09T03:21:22.909Z,24.00
2018-10-09T03:23:52.105Z,27.60
2018-10-09T03:26:21.273Z,23.80
2018-10-09T03:28:50.600Z,25.07
2018-10-09T03:31:19.749Z,23.43
2018-10-09T03:33:49.071Z,29.30
2018-10-09T03:36:18.370Z,24.00
2018-10-09T03:38:47.550Z,23.63
2018-10-09T03:41:16.723Z,24.87
2018-10-09T03:43:45.933Z,23.83
2018-10-09T03:46:15.101Z,27.17
2018-10-09T03:48:44.287Z,29.40
2018-10-09T03:51:13.460Z,25.57
2018-10-09T03:53:42.674Z,25.87
2018-10-09T03:56:11.851Z,21.93
2018-10-09T03:58:41.065Z,23.20
2018-10-09T04:01:10.216Z,26.93
2018-10-09T04:03:39.418Z,26.60
2018-10-09T04:06:08.581Z,24.90
2018-10-09T04:08:38.260Z,23.43
2018-10-09T04:11:07.646Z,23.40
2018-10-09T04:13:37.146Z,23.90
2018-10-09T04:16:07.157Z,21.73
2018-10-09T04:18:36.383Z,21.50
2018-10-09T04:21:05.538Z,22.30
2018-10-09T04:23:34.694Z,25.50
2018-10-09T04:26:03.954Z,21.57
2018-10-09T04:28:33.108Z,23.40
2018-10-09T04:31:02.442Z,23.10
2018-10-09T04:33:31.656Z,26.00
2018-10-09T04:36:00.826Z,24.00
2018-10-09T04:38:30.133Z,23.67
2018-10-09T04:40:59.343Z,25.27
2018-10-09T04:43:28.513Z,22.57
2018-10-09T04:45:57.672Z,24.13
2018-10-09T04:48:26.869Z,27.20
2018-10-09T04:50:56.038Z,32.97
2018-10-09T04:53:25.202Z,24.20
2018-10-09T04:55:54.473Z,30.03
2018-10-09T04:58:23.643Z,25.80
2018-10-09T05:00:52.805Z,25.90
2018-10-09T05:03:22.003Z,26.67
2018-10-09T05:05:51.172Z,21.57
2018-10-09T05:08:20.363Z,24.67
2018-10-09T05:10:59.830Z,26.10
2018-10-09T05:13:29.095Z,26.17
2018-10-09T05:15:58.326Z,30.77
2018-10-09T05:18:27.627Z,34.90
2018-10-09T05:20:56.805Z,28.33
2018-10-09T05:23:25.969Z,24.60
2018-10-09T05:25:55.170Z,26.20
2018-10-09T05:28:24.537Z,27.90
2018-10-09T05:30:53.987Z,26.40
2018-10-09T05:33:23.186Z,29.13
2018-10-09T05:35:52.344Z,25.10
2018-10-09T05:41:22.130Z,33.27
2018-10-09T05:43:51.378Z,27.17
2018-10-09T05:46:20.549Z,27.30
2018-10-09T05:48:49.830Z,28.17
2018-10-09T05:51:18.980Z,24.97
2018-10-09T05:53:48.169Z,28.37
2018-10-09T05:56:17.356Z,29.63
2018-10-09T05:58:46.577Z,27.63
2018-10-09T06:04:16.436Z,27.93
2018-10-09T06:06:58.029Z,31.33
2018-10-09T06:09:56.513Z,38.60
2018-10-09T06:12:25.857Z,48.17
2018-10-09T06:15:00.855Z,35.73
2018-10-09T06:17:56.978Z,28.67
2018-10-09T06:20:26.190Z,27.60
2018-10-09T06:22:55.333Z,25.60
2018-10-09T06:28:24.727Z,28.80
2018-10-09T06:30:59.971Z,31.20
2018-10-09T06:33:29.282Z,31.43
2018-10-09T06:35:58.643Z,38.47
2018-10-09T06:41:56.331Z,26.90
2018-10-09T06:50:56.454Z,30.60
2018-10-09T07:17:56.890Z,34.87
2018-10-09T07:23:56.401Z,29.27
2018-10-09T07:32:56.864Z,28.07
2018-10-09T07:38:56.330Z,31.20
2018-10-09T07:47:56.354Z,32.73
2018-10-09T08:02:57.039Z,32.13
2018-10-09T08:11:56.462Z,29.67
2018-10-09T08:23:56.541Z,49.10
2018-10-09T08:32:56.666Z,32.77
2018-10-09T08:47:57.067Z,28.40
2018-10-09T08:59:56.810Z,46.70
2018-10-09T09:20:27.645Z,31.57
2018-10-09T09:23:00.313Z,28.80
2018-10-09T09:25:57.066Z,32.87
2018-10-09T09:31:20.443Z,38.67
2018-10-09T09:37:16.642Z,36.30
2018-10-09T09:53:23.848Z,54.57
2018-10-09T09:55:59.181Z,42.90
2018-10-09T09:58:57.279Z,41.63
2018-10-09T10:04:56.718Z,37.33
2018-10-09T10:16:56.719Z,37.97
2018-10-09T10:28:56.647Z,33.00
2018-10-09T10:37:56.966Z,44.70
2018-10-09T10:49:57.269Z,51.70
2018-10-09T11:10:56.941Z,31.50
2018-10-09T11:19:56.766Z,31.00
2018-10-09T11:31:56.771Z,29.23
2018-10-09T11:52:56.647Z,36.33
2018-10-09T11:55:25.846Z,29.00
2018-10-09T11:58:01.136Z,32.87
2018-10-09T12:00:56.981Z,32.07
2018-10-09T12:06:19.957Z,26.30
2018-10-09T12:08:59.239Z,27.53
2018-10-09T13:03:26.326Z,19.63
2018-10-09T13:05:55.516Z,25.30
2018-10-09T13:08:24.687Z,25.97
2018-10-09T13:10:56.932Z,20.60
2018-10-09T13:13:26.101Z,23.70
2018-10-09T13:16:00.891Z,28.20
2018-10-09T13:18:56.773Z,24.40
2018-10-09T13:27:56.969Z,26.07
2018-10-09T13:30:41.129Z,19.33
2018-10-09T13:33:10.314Z,24.33
2018-10-09T13:35:58.663Z,30.13
2018-10-09T13:38:56.842Z,26.00
2018-10-09T13:41:26.045Z,20.10
2018-10-09T13:43:55.236Z,20.87
2018-10-09T13:46:24.477Z,23.33
2018-10-09T13:48:53.684Z,25.40
2018-10-09T13:51:22.959Z,27.47
2018-10-09T13:53:52.122Z,31.80
2018-10-09T13:56:21.337Z,31.53
2018-10-09T13:58:50.505Z,25.87
2018-10-09T14:04:20.336Z,30.33
2018-10-09T14:06:59.448Z,24.63
2018-10-09T14:09:28.653Z,24.87
2018-10-09T14:11:57.864Z,26.40
2018-10-09T14:14:27.473Z,28.13
2018-10-09T14:17:00.241Z,29.00
2018-10-09T14:19:29.557Z,25.17
2018-10-09T14:21:58.962Z,25.10
2018-10-09T14:27:44.709Z,20.00
2018-10-09T14:30:13.934Z,28.53
2018-10-09T14:32:43.163Z,21.70
2018-10-09T14:35:12.410Z,24.47
2018-10-09T14:37:41.607Z,22.57
2018-10-09T14:40:10.806Z,24.33
2018-10-09T14:42:58.728Z,22.50
2018-10-09T14:45:27.934Z,24.70
2018-10-09T14:47:57.141Z,24.53
2018-10-09T14:50:26.314Z,28.33
2018-10-09T14:52:55.532Z,25.63
2018-10-09T14:55:24.690Z,26.17
2018-10-09T14:57:54.089Z,26.60
2018-10-09T15:00:23.329Z,24.70
2018-10-09T15:02:52.493Z,22.50
2018-10-09T15:05:21.759Z,28.83
2018-10-09T15:07:50.944Z,26.07
2018-10-09T15:10:20.203Z,26.70
2018-10-09T15:12:49.361Z,25.93
2018-10-09T15:15:18.597Z,22.57
2018-10-09T15:17:47.767Z,27.17
2018-10-09T15:20:16.950Z,23.63
2018-10-09T15:22:46.188Z,20.50
2018-10-09T15:25:15.365Z,28.00
2018-10-09T15:27:44.554Z,30.10
2018-10-09T15:30:13.722Z,31.50
2018-10-09T15:32:42.954Z,24.40
2018-10-09T15:35:12.194Z,23.80
2018-10-09T15:38:00.700Z,26.20
2018-10-09T15:40:30.000Z,24.43
2018-10-09T15:42:59.688Z,22.27
2018-10-09T15:45:58.146Z,20.47
2018-10-09T15:48:56.785Z,21.13
2018-10-09T15:57:27.451Z,20.17
2018-10-09T15:59:56.632Z,20.03
2018-10-09T16:02:25.794Z,19.90
2018-10-09T16:04:54.997Z,19.13
2018-10-09T16:07:24.252Z,19.00
2018-10-09T16:09:53.667Z,21.07
2018-10-09T16:12:22.974Z,19.17
2018-10-09T16:15:03.365Z,17.87
2018-10-09T16:17:32.670Z,20.50
2018-10-09T16:20:02.037Z,18.90
2018-10-09T16:23:02.553Z,20.57
2018-10-09T16:25:32.029Z,20.03
2018-10-09T16:28:01.219Z,19.20
2018-10-09T16:30:30.440Z,18.87
2018-10-09T16:32:59.901Z,20.67
2018-10-09T16:38:52.053Z,18.80
2018-10-09T16:41:21.293Z,19.10
2018-10-09T16:43:50.782Z,17.50
2018-10-09T16:46:43.691Z,18.07
2018-10-09T16:49:39.647Z,22.03
2018-10-09T16:52:08.898Z,17.87
2018-10-09T16:54:38.350Z,18.93
2018-10-09T16:57:07.539Z,20.70
2018-10-09T17:00:06.504Z,17.60
2018-10-09T17:03:04.109Z,20.20
2018-10-09T17:05:33.405Z,21.27
2018-10-09T17:08:03.142Z,21.53
2018-10-09T17:10:32.447Z,20.00
2018-10-09T17:13:01.718Z,21.87
2018-10-09T17:15:31.557Z,19.67
2018-10-09T17:18:00.727Z,20.63
2018-10-09T17:23:58.386Z,28.33
2018-10-09T17:27:01.351Z,26.83
2018-10-09T17:29:30.606Z,28.00
2018-10-09T17:36:08.732Z,26.63
2018-10-09T17:39:11.675Z,23.83
2018-10-09T17:45:13.407Z,29.50
2018-10-09T17:52:59.594Z,25.70
2018-10-09T17:55:28.797Z,27.33
2018-10-09T17:57:59.881Z,23.87
2018-10-09T18:00:58.426Z,23.73
2018-10-09T18:07:00.561Z,22.87
2018-10-09T18:09:57.608Z,21.50
2018-10-09T18:18:57.110Z,20.13
2018-10-09T18:21:26.509Z,21.63
2018-10-09T18:24:01.568Z,21.40
2018-10-09T18:26:57.522Z,18.30
2018-10-09T18:32:57.260Z,21.00
2018-10-09T18:38:27.642Z,18.43
2018-10-09T18:41:00.917Z,19.33
2018-10-09T18:43:57.663Z,21.60
2018-10-09T19:04:19.605Z,21.80
2018-10-09T19:07:01.474Z,24.47
2018-10-09T19:09:58.561Z,38.60
2018-10-09T19:15:57.201Z,20.97
2018-10-09T19:24:57.591Z,23.57
2018-10-09T19:27:26.827Z,18.90
2018-10-09T19:30:01.674Z,19.87
2018-10-09T19:32:57.109Z,31.67
2018-10-09T19:35:26.597Z,38.00
2018-10-09T19:38:01.450Z,37.73
2018-10-09T19:49:18.291Z,34.07
2018-10-09T19:51:59.956Z,39.67
2018-10-09T19:54:30.284Z,41.63
2018-10-09T19:57:01.185Z,36.50
2018-10-09T19:59:30.419Z,40.63
2018-10-09T20:05:00.473Z,27.03
2018-10-09T20:07:29.794Z,24.60
2018-10-09T20:09:59.075Z,26.43
2018-10-09T20:12:28.590Z,25.73
2018-10-09T20:14:57.857Z,25.90
2018-10-09T20:17:27.644Z,27.87
2018-10-09T20:19:56.920Z,27.97
2018-10-09T20:22:26.644Z,27.43
2018-10-09T20:25:01.725Z,34.00
2018-10-09T20:27:30.924Z,45.20
2018-10-09T20:30:00.149Z,55.70
2018-10-09T20:32:29.396Z,51.37
2018-10-09T20:34:58.594Z,55.03
2018-10-09T20:37:28.370Z,48.80
2018-10-09T20:39:57.564Z,61.47
2018-10-09T20:42:26.773Z,53.30
2018-10-09T20:44:56.124Z,53.83
2018-10-09T20:50:05.212Z,49.17
2018-10-09T20:52:59.356Z,46.97
2018-10-09T20:55:29.041Z,38.80
2018-10-09T20:57:58.253Z,37.73
2018-10-09T21:00:27.439Z,52.47
2018-10-09T21:02:56.705Z,43.23
2018-10-09T21:05:25.877Z,34.00
2018-10-09T21:07:55.121Z,31.70
2018-10-09T21:10:24.584Z,38.20
2018-10-09T21:12:53.760Z,57.10
2018-10-09T21:18:23.347Z,35.33
2018-10-09T21:20:52.493Z,39.73
2018-10-09T21:23:22.332Z,36.07
2018-10-09T21:25:51.555Z,39.60
2018-10-09T21:28:20.848Z,38.23
2018-10-09T21:30:50.048Z,34.23
2018-10-09T21:33:19.285Z,35.10
2018-10-09T21:35:48.484Z,35.93
2018-10-09T21:38:17.641Z,33.63
2018-10-09T21:40:47.378Z,48.50
2018-10-09T21:46:16.887Z,61.93
2018-10-09T21:48:46.877Z,52.47
2018-10-09T21:51:16.414Z,58.30
2018-10-09T21:53:45.856Z,56.83
2018-10-09T21:56:15.500Z,58.93
2018-10-09T21:58:44.688Z,50.60
2018-10-09T22:01:13.850Z,56.07
2018-10-09T22:03:43.032Z,44.83
2018-10-09T22:06:12.224Z,41.70
2018-10-09T22:08:41.569Z,43.20
2018-10-09T22:14:10.785Z,37.33
2018-10-09T22:16:39.948Z,36.67
2018-10-09T22:19:09.205Z,39.67
2018-10-09T22:21:38.408Z,38.77
2018-10-09T22:24:07.574Z,36.93
2018-10-09T22:26:36.734Z,37.80
2018-10-09T22:29:05.947Z,37.07
2018-10-09T22:31:35.245Z,66.60
2018-10-09T22:34:04.423Z,47.80
2018-10-09T22:36:33.625Z,48.00
2018-10-09T22:39:02.838Z,45.70
2018-10-09T22:41:32.012Z,47.40
2018-10-09T22:44:01.274Z,38.90
2018-10-09T22:46:30.395Z,38.50
2018-10-09T22:48:59.549Z,58.17
2018-10-09T22:51:28.737Z,33.43
2018-10-09T22:53:57.913Z,52.73
2018-10-09T22:56:27.337Z,55.47
2018-10-09T22:58:56.531Z,63.60
2018-10-09T23:01:25.685Z,64.10
2018-10-09T23:03:54.851Z,49.53
2018-10-09T23:09:24.498Z,47.73
2018-10-09T23:11:53.661Z,46.07
2018-10-09T23:14:22.824Z,46.27
2018-10-09T23:16:52.011Z,50.07
2018-10-09T23:19:21.285Z,56.27
2018-10-09T23:21:50.742Z,51.33
2018-10-09T23:24:19.964Z,54.87
2018-10-09T23:26:49.147Z,56.47
2018-10-09T23:29:18.336Z,72.17
2018-10-09T23:31:47.534Z,46.53
2018-10-09T23:34:16.742Z,36.60
2018-10-09T23:36:45.914Z,42.40
2018-10-09T23:39:15.157Z,49.47
2018-10-09T23:41:44.793Z,43.50
2018-10-09T23:44:13.954Z,41.63
2018-10-09T23:46:43.153Z,40.10
2018-10-09T23:52:15.490Z,53.87
2018-10-09T23:54:59.613Z,44.47
2018-10-09T23:57:29.241Z,35.63
2018-10-09T23:59:58.393Z,43.20
